Caribbean Princess — ZCDG8 — position and weather

sailwx.info

Track history (hours):
 
Tides and Currents Weather Stations Pressure Air Temp Water Temp Dewpoint Dewpoint Depression Visibility Wind Speed Wind Dir Waves Ship Positions

Caribbean Princess

Operator: Princess Cruises

Last reported at 2015-Sep-05 04:34 UTC. Time now 2015-Sep-05 10:13 UTC.
Position N 50°54' W 001°25'.

Type: Passenger vessel. MMSI: 310423000.

Date/timePositionNaut miles runAvg speedWind from/ knotsBaromVisibWave heightAir tempDewpointWater temp
2015-Sep-05 04:34N 50°54' W 001°25'8 8.1
2015-Sep-05 03:34N 50°47' W 001°19'1515.1
2015-Sep-05 02:33N 50°41' W 000°57'1212.2
2015-Sep-05 01:33N 50°36' W 000°39'1413.8
2015-Sep-05 00:33N 50°33' W 000°17'1515.2
2015-Sep-04 23:33N 50°33' E 000°06'1817.9
2015-Sep-04 22:33N 50°37' E 000°34'2020.0
2015-Sep-04 21:33N 50°48' E 000°60'2120.7
2015-Sep-04 20:33N 51°02' E 001°23'1918.9
2015-Sep-04 19:33N 51°15' E 001°46'2019.5
2015-Sep-04 18:33N 51°32' E 002°02'44520.8
2015-Sep-03 21:10N 58°51' E 003°60'1320.8
2015-Sep-03 20:33N 59°04' E 004°00'2120.7
2015-Sep-03 19:33N 59°24' E 004°00'  
2015-Aug-31 18:25N 59°57' E 004°40'3919.6
2015-Aug-31 16:27N 59°20' E 004°58'1516.9
2015-Aug-31 15:34N 59°06' E 005°10'1616.0
2015-Aug-31 14:33N 59°01' E 005°40'3 3.0
2015-Aug-31 13:31N 58°58' E 005°44'0 0.0
2015-Aug-31 12:31N 58°58' E 005°44'0 0.0
2015-Aug-31 11:28N 58°58' E 005°44'0 0.0
2015-Aug-31 10:31N 58°58' E 005°44'0 0.0
2015-Aug-31 09:31N 58°58' E 005°44'0 0.0
2015-Aug-31 08:31N 58°58' E 005°44'0 0.0
2015-Aug-31 07:31N 58°58' E 005°44'0 0.0
2015-Aug-31 06:31N 58°58' E 005°44'0 0.0
2015-Aug-31 05:31N 58°58' E 005°44'0 0.0
2015-Aug-31 04:33N 58°59' E 005°44'8 8.1
2015-Aug-31 03:34N 59°04' E 005°33'9 9.4
2015-Aug-31 02:34N 58°58' E 005°19'1616.3
2015-Aug-31 01:33N 58°43' E 005°10'7621.2
2015-Aug-30 22:00N 57°30' E 004°30'30617.2 210 / 51019.610.8 0.515.013.218.0
2015-Aug-30 04:12N 52°31' E 002°40'1722.9
2015-Aug-30 03:28N 52°14' E 002°41'4121.6
2015-Aug-30 01:33N 51°35' E 002°19'1818.0
2015-Aug-30 00:33N 51°20' E 002°03'2322.5
2015-Aug-29 23:33N 51°04' E 001°38'2323.0
2015-Aug-29 22:34N 50°43' E 001°24'2621.8
2015-Aug-29 21:22N 50°29' E 000°49'1923.2
2015-Aug-29 20:34N 50°24' E 000°21'2823.8
2015-Aug-29 19:23N 50°18' W 000°21'1923.4
2015-Aug-29 18:34N 50°28' W 000°47'1515.2
2015-Aug-29 17:34N 50°42' W 000°58'1413.9
2015-Aug-29 16:33N 50°48' W 001°18'8 8.2
2015-Aug-29 15:33N 50°54' W 001°26'0 0.1
2015-Aug-29 14:29N 50°54' W 001°26'0 0.0
2015-Aug-29 13:29N 50°54' W 001°26'0 0.0
2015-Aug-29 12:23N 50°54' W 001°26'0 0.0
2015-Aug-29 11:05N 50°54' W 001°26'0 0.0
2015-Aug-29 10:29N 50°54' W 001°26'0 0.0
2015-Aug-29 05:17N 50°54' W 001°26'3 3.5
2015-Aug-29 04:30N 50°52' W 001°23'8 8.6
2015-Aug-29 03:34N 50°46' W 001°15'1212.5
2015-Aug-29 02:34N 50°39' W 000°59'1211.7
2015-Aug-29 01:33N 50°30' W 001°10'74918.9
2015-Aug-27 10:00N 39°36' W 009°48'4 4.7 220 / 141016.8 5.4 0.521.020.222.0
2015-Aug-27 09:14N 39°33' W 009°51'1419.9
2015-Aug-27 08:33N 39°20' W 009°51'2020.4
2015-Aug-27 07:33N 38°59' W 009°51'2120.5
2015-Aug-27 06:33N 38°39' W 009°51'2120.7
2015-Aug-27 05:33N 38°19' W 009°44'2121.4
2015-Aug-27 04:33N 37°58' W 009°38'2121.3
2015-Aug-27 03:33N 37°37' W 009°32'2121.5
2015-Aug-27 02:33N 37°16' W 009°25'2120.9
2015-Aug-27 01:33N 36°56' W 009°20'2019.9
2015-Aug-27 00:32N 36°42' W 009°01'2121.1
2015-Aug-26 23:34N 36°36' W 008°37'2121.0
2015-Aug-26 22:33N 36°29' W 008°12'  
Track history (hours):
 
Tides and Currents Weather Stations Pressure Air Temp Water Temp Dewpoint Dewpoint Depression Visibility Wind Speed Wind Dir Waves Ship Positions

Caribbean Princess

Operator: Princess Cruises

Last reported at 2015-Sep-05 04:34 UTC. Time now 2015-Sep-05 10:13 UTC.
Position N 50°54' W 001°25'.

Type: Passenger vessel. MMSI: 310423000.

Date/timePositionNaut miles runAvg speedWind from/ knotsBaromVisibWave heightAir tempDewpointWater temp
2015-Sep-05 04:34N 50°54' W 001°25'8 8.1
2015-Sep-05 03:34N 50°47' W 001°19'1515.1
2015-Sep-05 02:33N 50°41' W 000°57'1212.2
2015-Sep-05 01:33N 50°36' W 000°39'1413.8
2015-Sep-05 00:33N 50°33' W 000°17'1515.2
2015-Sep-04 23:33N 50°33' E 000°06'1817.9
2015-Sep-04 22:33N 50°37' E 000°34'2020.0
2015-Sep-04 21:33N 50°48' E 000°60'2120.7
2015-Sep-04 20:33N 51°02' E 001°23'1918.9
2015-Sep-04 19:33N 51°15' E 001°46'2019.5
2015-Sep-04 18:33N 51°32' E 002°02'44520.8
2015-Sep-03 21:10N 58°51' E 003°60'1320.8
2015-Sep-03 20:33N 59°04' E 004°00'2120.7
2015-Sep-03 19:33N 59°24' E 004°00'  
2015-Aug-31 18:25N 59°57' E 004°40'3919.6
2015-Aug-31 16:27N 59°20' E 004°58'1516.9
2015-Aug-31 15:34N 59°06' E 005°10'1616.0
2015-Aug-31 14:33N 59°01' E 005°40'3 3.0
2015-Aug-31 13:31N 58°58' E 005°44'0 0.0
2015-Aug-31 12:31N 58°58' E 005°44'0 0.0
2015-Aug-31 11:28N 58°58' E 005°44'0 0.0
2015-Aug-31 10:31N 58°58' E 005°44'0 0.0
2015-Aug-31 09:31N 58°58' E 005°44'0 0.0
2015-Aug-31 08:31N 58°58' E 005°44'0 0.0
2015-Aug-31 07:31N 58°58' E 005°44'0 0.0
2015-Aug-31 06:31N 58°58' E 005°44'0 0.0
2015-Aug-31 05:31N 58°58' E 005°44'0 0.0
2015-Aug-31 04:33N 58°59' E 005°44'8 8.1
2015-Aug-31 03:34N 59°04' E 005°33'9 9.4
2015-Aug-31 02:34N 58°58' E 005°19'1616.3
2015-Aug-31 01:33N 58°43' E 005°10'7621.2
2015-Aug-30 22:00N 57°30' E 004°30'30617.2 210 / 51019.610.8 0.515.013.218.0
2015-Aug-30 04:12N 52°31' E 002°40'1722.9
2015-Aug-30 03:28N 52°14' E 002°41'4121.6
2015-Aug-30 01:33N 51°35' E 002°19'1818.0
2015-Aug-30 00:33N 51°20' E 002°03'2322.5
2015-Aug-29 23:33N 51°04' E 001°38'2323.0
2015-Aug-29 22:34N 50°43' E 001°24'2621.8
2015-Aug-29 21:22N 50°29' E 000°49'1923.2
2015-Aug-29 20:34N 50°24' E 000°21'2823.8
2015-Aug-29 19:23N 50°18' W 000°21'1923.4
2015-Aug-29 18:34N 50°28' W 000°47'1515.2
2015-Aug-29 17:34N 50°42' W 000°58'1413.9
2015-Aug-29 16:33N 50°48' W 001°18'8 8.2
2015-Aug-29 15:33N 50°54' W 001°26'0 0.1
2015-Aug-29 14:29N 50°54' W 001°26'0 0.0
2015-Aug-29 13:29N 50°54' W 001°26'0 0.0
2015-Aug-29 12:23N 50°54' W 001°26'0 0.0
2015-Aug-29 11:05N 50°54' W 001°26'0 0.0
2015-Aug-29 10:29N 50°54' W 001°26'0 0.0
2015-Aug-29 05:17N 50°54' W 001°26'3 3.5
2015-Aug-29 04:30N 50°52' W 001°23'8 8.6
2015-Aug-29 03:34N 50°46' W 001°15'1212.5
2015-Aug-29 02:34N 50°39' W 000°59'1211.7
2015-Aug-29 01:33N 50°30' W 001°10'74918.9
2015-Aug-27 10:00N 39°36' W 009°48'4 4.7 220 / 141016.8 5.4 0.521.020.222.0
2015-Aug-27 09:14N 39°33' W 009°51'1419.9
2015-Aug-27 08:33N 39°20' W 009°51'2020.4
2015-Aug-27 07:33N 38°59' W 009°51'2120.5
2015-Aug-27 06:33N 38°39' W 009°51'2120.7
2015-Aug-27 05:33N 38°19' W 009°44'2121.4
2015-Aug-27 04:33N 37°58' W 009°38'2121.3
2015-Aug-27 03:33N 37°37' W 009°32'2121.5
2015-Aug-27 02:33N 37°16' W 009°25'2120.9
2015-Aug-27 01:33N 36°56' W 009°20'2019.9
2015-Aug-27 00:32N 36°42' W 009°01'2121.1
2015-Aug-26 23:34N 36°36' W 008°37'2121.0
2015-Aug-26 22:33N 36°29' W 008°12'  

Dump ship's entire track history